Time;durP1;ratioP1;P1;durP2;ratioP2;P2;SDS_P1;SDS_P2;PMS_P1;PMS_P2;Temp;Humidity;BMP_temperature;BMP_pressure;BME280_temperature;BME280_humidity;BME280_pressure;Samples;Min_cycle;Max_cycle;Signal;HPM_P1;HPM_P2
2021/03/06 00:02:20;;;;;;;10.90;6.00;;;2.40;99.90;;;;;;5057508;28;20205;-75
2021/03/06 00:04:45;;;;;;;13.87;5.93;;;2.30;99.90;;;;;;5083731;28;20190;-75
2021/03/06 00:07:11;;;;;;;7.47;5.50;;;2.30;99.90;;;;;;5091288;28;20217;-75
2021/03/06 00:09:37;;;;;;;13.63;5.47;;;2.30;99.90;;;;;;5092330;28;20174;-75
2021/03/06 00:12:04;;;;;;;10.13;5.17;;;2.30;99.90;;;;;;5065779;28;20174;-75
2021/03/06 00:14:30;;;;;;;14.57;5.73;;;2.30;99.90;;;;;;5059129;28;20170;-75
2021/03/06 00:16:56;;;;;;;6.10;5.50;;;2.40;99.90;;;;;;5092938;28;20208;-75
2021/03/06 00:19:21;;;;;;;8.17;5.17;;;2.40;99.90;;;;;;5075121;28;20182;-74
2021/03/06 00:21:47;;;;;;;10.03;5.63;;;2.50;99.90;;;;;;5092765;28;20618;-74
2021/03/06 00:24:13;;;;;;;7.60;5.57;;;2.50;99.90;;;;;;5091542;28;20166;-73
2021/03/06 00:26:39;;;;;;;8.07;5.37;;;2.40;99.90;;;;;;5077391;28;20178;-74
2021/03/06 00:29:04;;;;;;;8.47;5.03;;;2.40;99.90;;;;;;5092417;28;20325;-74
2021/03/06 00:31:33;;;;;;;10.57;5.33;;;2.40;99.90;;;;;;5074926;28;20166;-73
2021/03/06 00:34:00;;;;;;;10.97;5.17;;;2.30;99.90;;;;;;5085341;28;20529;-74
2021/03/06 00:36:25;;;;;;;12.57;5.47;;;2.20;99.90;;;;;;5080912;28;20561;-75
2021/03/06 00:38:52;;;;;;;8.80;5.10;;;2.10;99.90;;;;;;5061724;28;20167;-74
2021/03/06 00:41:18;;;;;;;8.30;5.80;;;2.10;99.90;;;;;;5078443;28;20220;-74
2021/03/06 00:43:43;;;;;;;6.60;5.53;;;2.10;99.90;;;;;;5086664;28;20174;-74
2021/03/06 00:46:09;;;;;;;8.03;5.30;;;2.20;99.90;;;;;;5096744;28;20182;-74
2021/03/06 00:48:35;;;;;;;13.10;6.30;;;2.20;99.90;;;;;;5096724;28;20162;-77
2021/03/06 00:51:00;;;;;;;8.20;5.47;;;2.10;99.90;;;;;;5061792;28;20690;-78
2021/03/06 00:53:26;;;;;;;9.40;5.80;;;2.00;99.90;;;;;;5096275;28;20661;-77
2021/03/06 00:55:51;;;;;;;6.20;4.90;;;2.00;99.90;;;;;;5069968;28;20204;-74
2021/03/06 00:58:17;;;;;;;11.10;5.93;;;1.90;99.90;;;;;;5096256;28;20174;-75
2021/03/06 01:00:43;;;;;;;14.23;5.77;;;2.00;99.90;;;;;;5078082;28;20166;-77
2021/03/06 01:03:09;;;;;;;14.47;5.90;;;1.90;99.90;;;;;;5082063;28;20170;-77
2021/03/06 01:05:35;;;;;;;15.43;5.90;;;2.00;99.90;;;;;;5098484;28;20169;-74
2021/03/06 01:08:01;;;;;;;7.40;5.60;;;2.10;99.90;;;;;;5098369;28;20165;-74
2021/03/06 01:10:35;;;;;;;9.37;5.67;;;2.20;99.90;;;;;;5098314;28;20628;-73
2021/03/06 01:13:00;;;;;;;8.17;5.47;;;2.20;99.90;;;;;;5094060;28;20181;-74
2021/03/06 01:15:26;;;;;;;9.63;5.37;;;2.10;99.90;;;;;;5078019;28;20185;-74
2021/03/06 01:17:52;;;;;;;10.43;6.13;;;2.00;99.90;;;;;;5088498;28;20166;-73
2021/03/06 01:20:18;;;;;;;8.53;5.70;;;2.00;99.90;;;;;;5095878;28;20174;-74
2021/03/06 01:22:43;;;;;;;14.90;6.13;;;2.00;99.90;;;;;;5095670;28;20166;-73
2021/03/06 01:25:10;;;;;;;8.73;5.70;;;2.00;99.90;;;;;;5095731;28;20174;-74
2021/03/06 01:27:35;;;;;;;7.17;5.23;;;1.90;99.90;;;;;;5077602;28;20219;-77
2021/03/06 01:30:01;;;;;;;11.07;5.93;;;1.80;99.90;;;;;;5095751;28;20182;-75
2021/03/06 01:32:30;;;;;;;7.30;5.47;;;1.70;99.90;;;;;;5077687;28;20162;-75
2021/03/06 01:34:59;;;;;;;12.03;6.07;;;1.70;99.90;;;;;;5093916;28;20166;-77
2021/03/06 01:37:25;;;;;;;13.73;5.77;;;1.80;99.90;;;;;;5060698;28;20218;-78
2021/03/06 01:39:51;;;;;;;10.70;6.03;;;1.70;99.90;;;;;;5077393;28;20253;-77
2021/03/06 01:42:20;;;;;;;11.80;5.50;;;1.70;99.90;;;;;;5066359;28;20171;-77
2021/03/06 01:44:46;;;;;;;8.93;5.00;;;1.60;99.90;;;;;;5074456;28;20185;-76
2021/03/06 01:47:15;;;;;;;10.83;5.63;;;1.50;99.90;;;;;;5093635;28;20191;-77
2021/03/06 01:49:41;;;;;;;11.30;5.97;;;1.50;99.90;;;;;;5094267;28;20162;-77
2021/03/06 01:52:06;;;;;;;9.67;5.83;;;1.50;99.90;;;;;;5094504;28;20189;-77
2021/03/06 01:54:32;;;;;;;8.70;5.87;;;1.40;99.90;;;;;;5075985;28;20261;-74
2021/03/06 01:56:58;;;;;;;11.90;6.50;;;1.50;99.90;;;;;;5094102;28;20212;-77
2021/03/06 01:59:24;;;;;;;10.07;5.87;;;1.40;99.90;;;;;;5095386;28;20166;-77
2021/03/06 02:01:50;;;;;;;9.37;5.93;;;1.40;99.90;;;;;;5077249;28;20617;-78
2021/03/06 02:04:16;;;;;;;9.53;6.30;;;1.30;99.90;;;;;;5076047;28;20251;-77
2021/03/06 02:06:42;;;;;;;12.87;5.70;;;1.30;99.90;;;;;;5093810;28;20178;-77
2021/03/06 02:09:10;;;;;;;8.00;5.83;;;1.30;99.90;;;;;;5092011;28;20185;-77
2021/03/06 02:11:40;;;;;;;8.20;5.60;;;1.30;99.90;;;;;;5067263;28;20257;-76
2021/03/06 02:14:25;;;;;;;11.73;6.47;;;1.20;99.90;;;;;;5094533;28;20223;-77
2021/03/06 02:16:59;;;;;;;13.80;6.60;;;1.30;99.90;;;;;;5093664;28;20194;-78
2021/03/06 02:19:52;;;;;;;16.83;6.67;;;1.20;99.90;;;;;;5093666;28;20157;-77
2021/03/06 02:22:27;;;;;;;11.70;5.80;;;1.30;99.90;;;;;;5094739;28;20158;-77
2021/03/06 02:25:12;;;;;;;10.03;6.53;;;1.20;99.90;;;;;;5077052;28;20169;-77
2021/03/06 02:28:03;;;;;;;16.10;6.10;;;1.20;99.90;;;;;;5094322;28;20174;-77
2021/03/06 02:30:31;;;;;;;11.20;5.80;;;1.20;99.90;;;;;;5093152;28;20217;-77
2021/03/06 02:33:01;;;;;;;10.87;6.17;;;1.10;99.90;;;;;;5094664;28;20681;-77
2021/03/06 02:35:32;;;;;;;14.97;6.33;;;1.10;99.90;;;;;;5094592;28;20182;-78
2021/03/06 02:38:06;;;;;;;16.77;6.27;;;1.10;99.90;;;;;;5094668;28;20158;-77
2021/03/06 02:40:32;;;;;;;18.00;6.50;;;1.10;99.90;;;;;;5093022;28;20170;-74
2021/03/06 02:43:00;;;;;;;13.90;6.60;;;1.20;99.90;;;;;;5079598;28;21265;-77
2021/03/06 02:45:27;;;;;;;10.83;6.40;;;1.20;99.90;;;;;;5076225;28;20166;-77
2021/03/06 02:47:56;;;;;;;12.50;6.73;;;1.10;99.90;;;;;;5094475;28;20527;-77
2021/03/06 02:50:22;;;;;;;16.47;5.77;;;1.10;99.90;;;;;;5093945;28;20261;-77
2021/03/06 02:52:47;;;;;;;14.40;6.50;;;1.10;99.90;;;;;;5075900;28;20280;-77
2021/03/06 02:55:13;;;;;;;11.17;6.03;;;1.00;99.90;;;;;;5093901;28;20172;-74
2021/03/06 02:57:57;;;;;;;9.90;6.27;;;1.10;99.90;;;;;;5094301;28;20176;-77
2021/03/06 03:00:43;;;;;;;10.70;6.13;;;1.10;99.90;;;;;;5074830;28;20685;-77
2021/03/06 03:03:11;;;;;;;10.00;5.90;;;1.10;99.90;;;;;;5093283;28;20174;-77
2021/03/06 03:05:49;;;;;;;23.83;7.73;;;1.10;99.90;;;;;;5094037;28;20166;-77
2021/03/06 03:08:22;;;;;;;17.37;6.97;;;1.00;99.90;;;;;;5075684;28;20158;-77
2021/03/06 03:10:55;;;;;;;15.63;6.63;;;1.00;99.90;;;;;;5094097;28;20176;-77
2021/03/06 03:13:38;;;;;;;10.33;6.23;;;1.00;99.90;;;;;;5090507;28;20494;-77
2021/03/06 03:16:11;;;;;;;10.50;7.10;;;0.90;99.90;;;;;;5075842;28;20285;-74
2021/03/06 03:19:08;;;;;;;14.37;7.00;;;0.90;99.90;;;;;;5075731;28;20225;-74
2021/03/06 03:21:40;;;;;;;16.77;7.53;;;0.90;99.90;;;;;;5092989;28;20224;-77
2021/03/06 03:24:12;;;;;;;17.17;6.73;;;1.00;99.90;;;;;;5068010;28;20181;-77
2021/03/06 03:26:39;;;;;;;11.67;6.93;;;1.00;99.90;;;;;;5075258;28;20177;-77
2021/03/06 03:29:07;;;;;;;15.70;7.17;;;1.00;99.90;;;;;;5075444;28;20216;-78
2021/03/06 03:31:35;;;;;;;14.37;7.10;;;0.90;99.90;;;;;;5093460;28;20223;-77
2021/03/06 03:34:03;;;;;;;25.27;7.37;;;0.90;99.90;;;;;;5084541;28;20506;-77
2021/03/06 03:36:30;;;;;;;19.53;8.17;;;0.90;99.90;;;;;;5091914;28;20242;-78
2021/03/06 03:38:56;;;;;;;14.60;7.73;;;0.90;99.90;;;;;;5093692;28;20158;-77
2021/03/06 03:41:22;;;;;;;12.87;7.37;;;0.90;99.90;;;;;;5093179;28;20644;-77
2021/03/06 03:43:52;;;;;;;19.63;8.43;;;0.90;99.90;;;;;;5063818;28;20678;-77
2021/03/06 03:46:20;;;;;;;16.60;9.50;;;0.90;99.90;;;;;;5093464;28;20256;-77
2021/03/06 03:48:46;;;;;;;18.20;7.80;;;0.80;99.90;;;;;;5093388;28;20263;-77
2021/03/06 03:51:12;;;;;;;13.20;7.43;;;0.90;99.90;;;;;;5092932;28;20613;-77
2021/03/06 03:53:39;;;;;;;10.70;7.80;;;0.90;99.90;;;;;;5080646;28;20193;-73
2021/03/06 03:56:08;;;;;;;19.03;7.97;;;0.90;99.90;;;;;;5093424;28;20204;-73
2021/03/06 03:58:39;;;;;;;18.63;7.67;;;0.90;99.90;;;;;;5091786;28;20176;-77
2021/03/06 04:01:05;;;;;;;10.63;8.03;;;0.90;99.90;;;;;;5092859;28;20182;-77
2021/03/06 04:03:31;;;;;;;15.10;8.27;;;0.80;99.90;;;;;;5092958;28;20231;-77
2021/03/06 04:05:57;;;;;;;16.87;8.23;;;0.80;99.90;;;;;;5075022;28;20178;-77
2021/03/06 04:08:23;;;;;;;12.40;7.93;;;0.80;99.90;;;;;;5093300;28;20241;-77
2021/03/06 04:10:49;;;;;;;13.53;7.90;;;0.80;99.90;;;;;;5094749;28;20204;-77
2021/03/06 04:13:15;;;;;;;20.20;7.60;;;0.80;99.90;;;;;;5091758;28;20166;-77
2021/03/06 04:15:41;;;;;;;13.37;8.10;;;0.70;99.90;;;;;;5079024;28;20292;-77
2021/03/06 04:18:07;;;;;;;12.73;7.80;;;0.60;99.90;;;;;;5097118;28;20192;-76
2021/03/06 04:20:33;;;;;;;17.03;7.83;;;0.60;99.90;;;;;;5078588;28;20178;-77
2021/03/06 04:23:01;;;;;;;14.87;8.13;;;0.60;99.90;;;;;;5098875;28;20654;-77
2021/03/06 04:25:27;;;;;;;19.43;8.43;;;0.60;99.90;;;;;;5082765;28;20169;-77
2021/03/06 04:27:53;;;;;;;14.83;8.87;;;0.60;99.90;;;;;;5117457;28;20299;-77
2021/03/06 04:30:19;;;;;;;17.33;8.20;;;0.70;99.90;;;;;;5099089;28;20177;-79
2021/03/06 04:32:45;;;;;;;13.93;9.67;;;0.60;99.90;;;;;;5095959;28;20174;-74
2021/03/06 04:35:11;;;;;;;13.57;9.13;;;0.60;99.90;;;;;;5079217;28;20188;-77
2021/03/06 04:37:38;;;;;;;20.63;8.53;;;0.50;99.90;;;;;;5078842;28;20178;-74
2021/03/06 04:40:06;;;;;;;14.60;8.70;;;0.50;99.90;;;;;;5078646;28;20197;-74
2021/03/06 04:42:32;;;;;;;22.13;9.07;;;0.50;99.90;;;;;;5092571;28;20260;-74
2021/03/06 04:44:57;;;;;;;22.30;8.73;;;0.50;99.90;;;;;;5078533;28;20249;-73
2021/03/06 04:47:23;;;;;;;12.77;8.27;;;0.40;99.90;;;;;;5096439;28;20201;-77
2021/03/06 04:49:51;;;;;;;13.73;7.90;;;0.50;99.90;;;;;;5078786;28;20220;-73
2021/03/06 04:52:17;;;;;;;17.13;8.33;;;0.50;99.90;;;;;;5096204;28;20170;-76
2021/03/06 04:54:44;;;;;;;16.90;9.20;;;0.50;99.90;;;;;;5095741;28;20249;-73
2021/03/06 04:57:11;;;;;;;22.03;8.77;;;0.50;99.90;;;;;;5096261;28;20194;-77
2021/03/06 04:59:37;;;;;;;12.83;8.30;;;0.50;99.90;;;;;;5077862;28;20186;-77
2021/03/06 05:02:02;;;;;;;15.80;8.43;;;0.50;99.90;;;;;;5070559;28;20228;-77
2021/03/06 05:04:28;;;;;;;13.70;8.53;;;0.50;99.90;;;;;;5078188;28;20166;-77
2021/03/06 05:06:55;;;;;;;11.90;8.97;;;0.60;99.90;;;;;;5078193;28;20244;-73
2021/03/06 05:09:21;;;;;;;21.03;8.93;;;0.70;99.90;;;;;;5096441;28;20166;-74
2021/03/06 05:11:46;;;;;;;12.50;8.83;;;0.80;99.90;;;;;;5085048;28;20173;-73
2021/03/06 05:14:12;;;;;;;15.13;8.53;;;0.80;99.90;;;;;;5079318;28;20169;-74
2021/03/06 05:16:38;;;;;;;13.67;8.83;;;0.80;99.90;;;;;;5061083;28;20209;-74
2021/03/06 05:19:03;;;;;;;11.57;8.57;;;0.80;99.90;;;;;;5096281;28;20205;-73
2021/03/06 05:21:29;;;;;;;10.07;8.23;;;0.70;99.90;;;;;;5064822;28;20184;-74
2021/03/06 05:23:55;;;;;;;14.13;8.80;;;0.80;99.90;;;;;;5092949;28;20162;-74
2021/03/06 05:26:21;;;;;;;15.93;8.67;;;0.90;99.90;;;;;;5077768;28;20177;-74
2021/03/06 05:28:49;;;;;;;14.10;8.50;;;0.80;99.90;;;;;;5094815;28;20186;-77
2021/03/06 05:31:15;;;;;;;19.57;8.70;;;0.60;99.90;;;;;;5095401;28;21390;-77
2021/03/06 05:33:43;;;;;;;22.27;9.10;;;0.60;99.90;;;;;;5084513;28;20170;-77
2021/03/06 05:36:09;;;;;;;12.73;8.73;;;0.60;99.90;;;;;;5078323;28;20198;-74
2021/03/06 05:38:35;;;;;;;12.60;8.60;;;0.50;99.90;;;;;;5095781;28;20162;-74
2021/03/06 05:41:06;;;;;;;10.03;8.90;;;0.60;99.90;;;;;;5077327;28;20704;-77
2021/03/06 05:43:31;;;;;;;23.73;9.77;;;0.60;99.90;;;;;;5083686;28;20170;-74
2021/03/06 05:46:01;;;;;;;19.97;8.53;;;0.60;99.90;;;;;;5077359;28;20607;-74
2021/03/06 05:48:27;;;;;;;13.57;9.00;;;0.60;99.90;;;;;;5073455;28;20170;-73
2021/03/06 05:50:53;;;;;;;12.27;9.03;;;0.60;99.90;;;;;;5095277;28;20170;-74
2021/03/06 05:53:20;;;;;;;15.10;8.63;;;0.60;99.90;;;;;;5085572;28;20181;-74
2021/03/06 05:55:53;;;;;;;15.80;9.30;;;0.70;99.90;;;;;;5094005;28;20194;-74
2021/03/06 05:58:21;;;;;;;16.10;9.27;;;0.80;99.90;;;;;;5095349;28;20175;-74
2021/03/06 06:00:50;;;;;;;16.80;10.27;;;0.80;99.90;;;;;;5095191;28;20194;-78
2021/03/06 06:03:17;;;;;;;12.97;8.93;;;0.60;99.90;;;;;;5071224;28;20649;-77
2021/03/06 06:05:44;;;;;;;14.23;9.80;;;0.50;99.90;;;;;;5094102;28;20520;-77
2021/03/06 06:08:11;;;;;;;15.87;10.13;;;0.40;99.90;;;;;;5095190;28;20177;-77
2021/03/06 06:10:36;;;;;;;12.50;9.53;;;0.30;99.90;;;;;;5084137;28;20169;-77
2021/03/06 06:13:02;;;;;;;18.83;10.43;;;0.30;99.90;;;;;;5094894;28;20173;-78
2021/03/06 06:15:28;;;;;;;19.80;9.20;;;0.30;99.90;;;;;;5095105;28;20253;-77
2021/03/06 06:17:55;;;;;;;26.93;9.87;;;0.40;99.90;;;;;;5094888;28;20249;-77
2021/03/06 06:20:24;;;;;;;15.33;9.47;;;0.50;99.90;;;;;;5094473;28;20652;-77
2021/03/06 06:23:08;;;;;;;14.43;9.43;;;0.60;99.90;;;;;;5094547;28;20192;-74
2021/03/06 06:25:34;;;;;;;15.13;9.90;;;0.60;99.90;;;;;;5076358;28;20165;-76
2021/03/06 06:28:01;;;;;;;14.77;9.47;;;0.60;99.90;;;;;;5079672;28;20154;-77
2021/03/06 06:30:28;;;;;;;14.23;9.57;;;0.70;99.90;;;;;;5094330;28;20181;-76
2021/03/06 06:32:54;;;;;;;13.83;9.60;;;0.60;99.90;;;;;;5082667;28;20170;-77
2021/03/06 06:35:19;;;;;;;15.20;9.57;;;0.60;99.90;;;;;;5094582;28;20162;-77
2021/03/06 06:37:59;;;;;;;13.67;9.37;;;0.70;99.90;;;;;;5094406;28;20219;-76
2021/03/06 06:40:27;;;;;;;11.47;9.30;;;0.90;99.90;;;;;;5094480;28;20590;-74
2021/03/06 06:42:53;;;;;;;15.00;9.10;;;0.90;99.90;;;;;;5093835;28;20224;-74
2021/03/06 06:45:19;;;;;;;13.60;9.10;;;1.00;99.90;;;;;;5094129;28;20591;-74
2021/03/06 06:47:46;;;;;;;19.67;10.53;;;1.20;99.90;;;;;;5094012;28;20227;-74
2021/03/06 06:50:14;;;;;;;15.67;9.70;;;1.20;99.90;;;;;;5094142;28;20200;-75
2021/03/06 06:52:41;;;;;;;18.10;11.03;;;1.20;99.90;;;;;;5093433;28;20625;-74
2021/03/06 06:55:09;;;;;;;13.23;9.60;;;1.10;99.90;;;;;;5076193;28;20376;-74
2021/03/06 06:57:51;;;;;;;14.70;9.07;;;1.00;99.90;;;;;;5075820;28;20189;-76
2021/03/06 07:00:18;;;;;;;14.77;9.27;;;0.90;99.90;;;;;;5093983;28;20180;-77
2021/03/06 07:02:55;;;;;;;18.20;9.23;;;0.90;99.90;;;;;;5091045;28;20621;-77
2021/03/06 07:05:39;;;;;;;17.47;10.33;;;0.90;99.90;;;;;;5094181;28;20162;-77
2021/03/06 07:08:26;;;;;;;15.67;9.27;;;0.90;99.90;;;;;;5093675;28;20198;-77
2021/03/06 07:10:52;;;;;;;14.47;9.97;;;1.00;99.90;;;;;;5082943;28;20554;-77
2021/03/06 07:13:18;;;;;;;17.83;9.77;;;1.10;99.90;;;;;;5084625;28;20196;-77
2021/03/06 07:15:52;;;;;;;27.17;9.47;;;1.30;99.90;;;;;;5093904;28;20251;-77
2021/03/06 07:18:18;;;;;;;12.30;9.20;;;1.40;99.90;;;;;;5093881;28;20568;-77
2021/03/06 07:20:45;;;;;;;12.60;8.97;;;1.50;99.90;;;;;;5083531;28;20211;-77
2021/03/06 07:23:22;;;;;;;17.20;8.80;;;2.10;99.90;;;;;;5093530;28;20223;-74
2021/03/06 07:25:52;;;;;;;17.93;9.23;;;4.10;99.90;;;;;;5075617;28;20246;-74
2021/03/06 07:28:18;;;;;;;17.27;8.97;;;6.80;99.90;;;;;;5075480;28;20645;-74
2021/03/06 07:30:44;;;;;;;19.37;8.10;;;9.70;99.90;;;;;;5093768;28;20178;-75
2021/03/06 07:33:13;;;;;;;14.17;7.77;;;10.80;99.90;;;;;;5080632;28;20170;-76
2021/03/06 07:35:41;;;;;;;9.98;7.40;;;12.30;99.90;;;;;;5093472;28;20281;-76
2021/03/06 07:38:09;;;;;;;11.70;6.97;;;13.20;99.90;;;;;;5092250;28;20169;-77
2021/03/06 07:40:46;;;;;;;13.93;7.25;;;13.60;99.90;;;;;;5093052;28;20184;-76
2021/03/06 07:43:22;;;;;;;14.23;7.47;;;13.40;99.90;;;;;;5093803;28;20177;-79
2021/03/06 07:45:52;;;;;;;12.77;6.93;;;14.00;99.90;;;;;;5075019;28;20169;-76
2021/03/06 07:48:22;;;;;;;9.68;6.80;;;14.20;99.90;;;;;;5093416;28;20189;-73
2021/03/06 07:50:52;;;;;;;10.70;6.43;;;14.90;97.60;;;;;;5063430;28;20226;-76
2021/03/06 07:53:18;;;;;;;11.75;6.40;;;16.30;95.50;;;;;;5079914;28;20169;-73
2021/03/06 07:55:46;;;;;;;7.47;6.57;;;16.70;94.60;;;;;;5093395;28;20189;-73
2021/03/06 07:58:17;;;;;;;8.07;6.07;;;16.60;93.20;;;;;;5093628;28;20181;-73
2021/03/06 08:00:58;;;;;;;6.72;5.72;;;17.10;91.20;;;;;;5081831;28;20166;-73
2021/03/06 08:03:27;;;;;;;9.60;6.25;;;15.70;91.50;;;;;;5092635;28;20170;-74
2021/03/06 08:05:56;;;;;;;8.07;5.43;;;15.30;91.80;;;;;;5075514;28;20514;-75
2021/03/06 08:08:37;;;;;;;7.47;5.63;;;16.00;91.70;;;;;;5075030;28;20610;-74
2021/03/06 08:11:11;;;;;;;6.10;5.45;;;15.60;91.20;;;;;;5068435;28;20166;-75
2021/03/06 08:13:43;;;;;;;8.60;5.75;;;15.80;90.40;;;;;;5092688;28;20598;-74
2021/03/06 08:16:23;;;;;;;6.28;5.03;;;16.60;90.40;;;;;;5093151;28;20190;-74
2021/03/06 08:19:16;;;;;;;8.95;5.53;;;18.00;86.40;;;;;;5075639;28;20268;-74
2021/03/06 08:21:48;;;;;;;9.98;5.85;;;17.40;83.90;;;;;;5075887;28;20185;-74
2021/03/06 08:24:14;;;;;;;7.20;5.00;;;17.40;85.40;;;;;;5093043;28;20158;-74
2021/03/06 08:27:01;;;;;;;9.77;4.70;;;18.70;83.30;;;;;;5093245;28;20634;-74
2021/03/06 08:29:27;;;;;;;12.65;4.40;;;16.90;84.80;;;;;;5093565;28;20201;-73
2021/03/06 08:32:02;;;;;;;7.47;4.50;;;16.90;84.00;;;;;;5091791;28;20193;-74
2021/03/06 08:34:48;;;;;;;5.15;4.03;;;17.10;82.20;;;;;;5092939;28;20197;-75
2021/03/06 08:37:16;;;;;;;5.18;4.40;;;18.00;81.20;;;;;;5092853;28;20657;-74
2021/03/06 08:39:59;;;;;;;8.60;4.28;;;18.40;78.80;;;;;;5091753;28;20170;-74
2021/03/06 08:42:34;;;;;;;5.10;3.92;;;20.00;79.00;;;;;;5092776;28;20170;-74
2021/03/06 08:45:05;;;;;;;8.10;4.82;;;18.60;75.80;;;;;;5092473;28;20177;-76
2021/03/06 08:47:34;;;;;;;9.13;3.83;;;18.50;77.30;;;;;;5093158;28;20158;-76
2021/03/06 08:50:03;;;;;;;4.45;3.47;;;18.20;77.00;;;;;;5089541;28;20182;-76
2021/03/06 08:52:30;;;;;;;7.00;3.70;;;19.70;75.10;;;;;;5073000;28;20166;-75
2021/03/06 08:54:57;;;;;;;5.13;3.88;;;16.90;76.20;;;;;;5054742;28;20253;-75
2021/03/06 08:57:49;;;;;;;7.43;4.03;;;17.40;79.30;;;;;;5076700;28;20653;-74
2021/03/06 09:00:24;;;;;;;5.80;3.45;;;18.60;75.50;;;;;;5091139;28;20273;-74
2021/03/06 09:02:51;;;;;;;5.53;3.90;;;19.80;73.60;;;;;;5096280;28;20220;-75
2021/03/06 09:05:27;;;;;;;8.02;3.95;;;19.80;72.10;;;;;;5096495;28;20169;-77
2021/03/06 09:07:55;;;;;;;3.90;3.20;;;20.10;73.10;;;;;;5094035;28;20197;-76
2021/03/06 09:10:34;;;;;;;5.20;3.55;;;18.00;72.00;;;;;;5084223;28;20170;-74
2021/03/06 09:13:05;;;;;;;6.88;3.65;;;17.00;74.40;;;;;;5095984;28;20162;-74
2021/03/06 09:15:39;;;;;;;7.18;4.00;;;16.60;77.70;;;;;;5096288;28;20215;-74
2021/03/06 09:18:07;;;;;;;5.38;3.75;;;18.10;77.00;;;;;;5095658;28;20192;-77
2021/03/06 09:20:39;;;;;;;9.13;3.58;;;17.60;73.20;;;;;;5095830;28;20162;-75
2021/03/06 09:23:05;;;;;;;6.63;3.97;;;17.50;74.00;;;;;;5095991;28;20253;-75
2021/03/06 09:25:35;;;;;;;6.03;3.95;;;18.20;74.90;;;;;;5091211;28;20657;-75
2021/03/06 09:28:02;;;;;;;4.93;3.90;;;17.30;72.70;;;;;;5094890;28;20625;-75
2021/03/06 09:30:37;;;;;;;8.43;3.75;;;14.70;78.20;;;;;;5096295;28;20185;-76
2021/03/06 09:33:04;;;;;;;6.00;3.60;;;15.00;80.10;;;;;;5086331;28;20166;-76
2021/03/06 09:35:30;;;;;;;4.38;3.92;;;15.60;77.30;;;;;;5095539;28;20637;-75
2021/03/06 09:38:10;;;;;;;8.30;4.40;;;16.70;77.00;;;;;;5095339;28;20170;-76
2021/03/06 09:40:46;;;;;;;9.18;3.88;;;19.40;73.60;;;;;;5077549;28;20261;-76
2021/03/06 09:43:14;;;;;;;6.97;4.40;;;18.70;71.40;;;;;;5095336;28;20161;-76
2021/03/06 09:45:41;;;;;;;5.50;4.15;;;19.10;72.10;;;;;;5095796;28;20159;-76
2021/03/06 09:48:16;;;;;;;14.30;4.38;;;20.00;72.20;;;;;;5087927;28;20173;-76
2021/03/06 09:50:46;;;;;;;9.88;4.75;;;20.20;69.10;;;;;;5079202;28;20206;-75
2021/03/06 09:53:18;;;;;;;12.23;4.18;;;19.40;70.00;;;;;;5084307;28;20166;-76
2021/03/06 09:55:44;;;;;;;11.85;5.13;;;17.40;72.80;;;;;;5094806;28;20307;-75
2021/03/06 09:58:21;;;;;;;5.22;4.65;;;17.10;75.40;;;;;;5093761;28;20166;-76
2021/03/06 10:00:48;;;;;;;7.45;5.45;;;18.50;71.10;;;;;;5094897;28;20602;-76
2021/03/06 10:03:27;;;;;;;11.73;4.75;;;17.80;70.80;;;;;;5078231;28;20505;-75
2021/03/06 10:05:56;;;;;;;14.05;5.05;;;17.80;73.50;;;;;;5094550;28;20587;-79
2021/03/06 10:08:22;;;;;;;6.95;4.82;;;18.00;72.60;;;;;;5089120;28;20733;-75
2021/03/06 10:10:49;;;;;;;10.55;5.47;;;17.20;71.60;;;;;;5095086;28;20270;-75
2021/03/06 10:13:19;;;;;;;5.22;4.82;;;18.50;73.30;;;;;;5065219;28;20166;-75
2021/03/06 10:15:47;;;;;;;8.98;5.00;;;17.00;73.10;;;;;;5076908;28;20182;-74
2021/03/06 10:18:13;;;;;;;6.28;4.18;;;19.00;73.10;;;;;;5076420;28;20202;-76
2021/03/06 10:20:38;;;;;;;7.95;3.92;;;19.20;67.40;;;;;;5076442;28;20259;-76
2021/03/06 10:23:04;;;;;;;5.10;4.20;;;19.70;70.50;;;;;;5094809;28;20574;-76
2021/03/06 10:25:30;;;;;;;5.40;3.95;;;20.50;67.30;;;;;;5094706;28;20161;-77
2021/03/06 10:27:56;;;;;;;4.47;3.53;;;21.40;67.10;;;;;;5094329;28;20162;-77
2021/03/06 10:30:23;;;;;;;6.00;4.10;;;20.70;63.10;;;;;;5078644;28;20277;-76
2021/03/06 10:32:57;;;;;;;6.43;4.55;;;17.70;68.10;;;;;;5094264;28;20233;-75
2021/03/06 10:35:41;;;;;;;4.65;4.10;;;19.20;68.10;;;;;;5094622;28;20146;-76
2021/03/06 10:38:10;;;;;;;3.78;3.30;;;19.80;65.10;;;;;;5093276;28;20196;-81
2021/03/06 10:40:54;;;;;;;3.63;3.33;;;17.60;67.90;;;;;;5090966;28;20191;-76
2021/03/06 10:43:24;;;;;;;5.22;3.67;;;15.90;69.50;;;;;;5092921;28;20161;-76
2021/03/06 10:45:49;;;;;;;10.70;4.57;;;15.00;72.40;;;;;;5094493;28;20170;-78
2021/03/06 10:48:27;;;;;;;4.82;4.32;;;15.50;72.20;;;;;;5094261;28;20200;-79
2021/03/06 10:50:55;;;;;;;6.15;4.30;;;16.00;72.20;;;;;;5092865;28;20598;-79
2021/03/06 10:53:22;;;;;;;4.60;4.20;;;15.80;70.90;;;;;;5093831;28;20170;-77
2021/03/06 10:55:49;;;;;;;7.03;3.72;;;18.00;70.30;;;;;;5075564;28;20690;-76
2021/03/06 10:58:15;;;;;;;13.85;4.32;;;18.90;67.90;;;;;;5075616;28;20264;-74
2021/03/06 11:00:43;;;;;;;7.35;4.05;;;19.10;66.20;;;;;;5091181;28;20198;-73
2021/03/06 11:03:10;;;;;;;5.70;4.45;;;19.30;65.20;;;;;;5094241;28;20162;-75
2021/03/06 11:05:41;;;;;;;6.07;3.80;;;19.40;66.50;;;;;;5075707;28;20174;-78
2021/03/06 11:08:12;;;;;;;3.85;3.45;;;19.50;65.80;;;;;;5085182;28;20162;-76
2021/03/06 11:10:39;;;;;;;10.75;4.43;;;20.90;62.00;;;;;;5094299;28;20648;-79
2021/03/06 11:13:05;;;;;;;4.65;4.00;;;17.50;66.20;;;;;;5092547;28;20181;-79
2021/03/06 11:15:31;;;;;;;3.50;3.25;;;19.60;67.30;;;;;;5093396;28;20162;-75
2021/03/06 11:17:59;;;;;;;4.80;3.90;;;19.50;63.90;;;;;;5076026;28;20507;-75
2021/03/06 11:20:33;;;;;;;4.07;3.45;;;18.50;63.10;;;;;;5092859;28;20162;-75
2021/03/06 11:23:03;;;;;;;7.20;3.92;;;17.50;65.90;;;;;;5075742;28;20169;-75
2021/03/06 11:25:29;;;;;;;12.77;3.97;;;18.00;68.20;;;;;;5093102;28;20518;-75
2021/03/06 11:28:05;;;;;;;7.20;4.10;;;18.10;67.00;;;;;;5092953;28;20161;-75
2021/03/06 11:30:37;;;;;;;5.22;4.70;;;17.80;66.70;;;;;;5094092;28;20177;-76
2021/03/06 11:33:06;;;;;;;7.10;5.07;;;18.70;66.30;;;;;;5093409;28;20162;-76
2021/03/06 11:35:33;;;;;;;5.40;4.90;;;18.10;68.10;;;;;;5093053;28;20215;-76
2021/03/06 11:37:59;;;;;;;8.65;4.32;;;18.80;66.60;;;;;;5078036;28;20182;-75
2021/03/06 11:40:28;;;;;;;5.15;4.72;;;18.00;65.40;;;;;;5093624;28;20241;-75
2021/03/06 11:42:54;;;;;;;5.15;4.63;;;18.20;67.20;;;;;;5093542;28;20208;-75
2021/03/06 11:45:21;;;;;;;4.65;4.18;;;19.50;65.30;;;;;;5092787;28;20173;-75
2021/03/06 11:47:48;;;;;;;8.90;4.55;;;21.10;62.50;;;;;;5093369;28;20184;-75
2021/03/06 11:50:17;;;;;;;6.75;4.45;;;21.00;64.00;;;;;;5093003;28;20503;-75
2021/03/06 11:52:43;;;;;;;9.40;4.57;;;19.40;63.20;;;;;;5076007;28;20162;-75
2021/03/06 11:55:10;;;;;;;4.68;3.72;;;19.20;64.90;;;;;;5078987;28;20186;-75
2021/03/06 11:57:36;;;;;;;4.72;4.25;;;19.70;63.30;;;;;;5074873;28;20194;-75
2021/03/06 12:00:10;;;;;;;4.97;4.47;;;21.50;60.30;;;;;;5081633;28;20175;-75
2021/03/06 12:02:36;;;;;;;7.05;5.15;;;21.60;62.50;;;;;;5092252;28;20149;-75
2021/03/06 12:05:07;;;;;;;5.22;4.55;;;22.40;59.30;;;;;;5074782;28;20502;-75
2021/03/06 12:07:34;;;;;;;5.05;4.55;;;22.70;59.30;;;;;;5093402;28;20154;-77
2021/03/06 12:10:00;;;;;;;6.15;4.55;;;20.20;58.90;;;;;;5093537;28;20181;-75
2021/03/06 12:12:26;;;;;;;4.28;3.95;;;20.30;62.40;;;;;;5063314;28;20212;-75
2021/03/06 12:14:51;;;;;;;4.95;4.55;;;19.50;62.90;;;;;;5054586;28;20171;-75
2021/03/06 12:17:17;;;;;;;5.15;4.47;;;16.40;64.60;;;;;;5076997;28;20209;-77
2021/03/06 12:19:43;;;;;;;8.68;5.07;;;15.30;68.80;;;;;;5072957;28;20167;-75
2021/03/06 12:22:08;;;;;;;7.88;4.47;;;15.70;68.50;;;;;;5038666;28;20162;-75
2021/03/06 12:24:34;;;;;;;6.45;4.82;;;16.40;69.40;;;;;;5073156;28;20595;-76
2021/03/06 12:27:00;;;;;;;4.50;4.10;;;17.80;68.10;;;;;;5054639;28;20163;-75
2021/03/06 12:29:25;;;;;;;5.80;4.72;;;20.50;65.30;;;;;;5091739;28;20201;-75
2021/03/06 12:31:53;;;;;;;4.20;3.80;;;19.90;61.20;;;;;;5076973;28;20219;-75
2021/03/06 12:34:19;;;;;;;5.05;4.65;;;18.40;64.30;;;;;;5097144;28;20257;-75
2021/03/06 12:36:45;;;;;;;6.25;5.18;;;15.20;66.20;;;;;;5096900;28;20667;-76
2021/03/06 12:39:11;;;;;;;8.85;4.65;;;14.30;70.30;;;;;;5096844;28;20234;-75
2021/03/06 12:41:37;;;;;;;5.45;4.90;;;15.90;69.50;;;;;;5096397;28;20563;-74
2021/03/06 12:44:04;;;;;;;7.22;4.78;;;14.10;70.30;;;;;;5096840;28;20174;-75
2021/03/06 12:46:31;;;;;;;5.18;4.65;;;14.80;69.60;;;;;;5078476;28;20606;-76
2021/03/06 12:48:56;;;;;;;5.40;4.82;;;14.50;70.00;;;;;;5077156;28;20177;-75
2021/03/06 12:51:22;;;;;;;5.15;4.65;;;14.00;70.80;;;;;;5094717;28;20174;-75
2021/03/06 12:53:48;;;;;;;5.57;5.00;;;14.10;71.60;;;;;;5092842;28;20174;-75
2021/03/06 12:56:13;;;;;;;7.50;5.05;;;13.60;71.50;;;;;;5096410;28;20581;-75
2021/03/06 12:58:39;;;;;;;5.10;4.60;;;14.60;70.90;;;;;;5095539;28;20243;-75